Terminal Aerodrome Forecast
Issued by NWS Austin/San Antonio, TX

Home | Current Version | Previous Version | Text Only | Print | Product List | Glossary On
Versions: 1 2 3 4 5 6 7 8 9 10 11 12 13 14 15
000
FTUS44 KEWX 031732
TAFSAT
TAF
KSAT 031732Z 0318/0424 13008KT P6SM FEW070 FEW250
     FM040900 17004KT P6SM SCT020
     FM041600 17010KT P6SM FEW060 SCT250=

USA.gov is the U.S. government's official web portal to all federal, state and local government web resources and services.